^^
Station Historical Data
Daily Summary for March 09, 2018 Units:  Metric    English   Both
« Previous Day
Next Day »
Daily Weekly Monthly Yearly Custom
  High: Low: Average:
Temperature: -17.8 °C 12.6 °C 19.9 °C
Dew Point: -17.8 °C -6.4 °C 5.5 °C
Humidity: Humidity% 8% 45%
Wind Speed: 0km/h 0km/h 8.9km/h
Wind Gust: 0km/h - -
Wind- - SSW
Pressure: 0 hPa 1005 hPa -
Precipitation: 0 mm    
Historical Graphs
 
 
Tabular Data for March 09, 2018
Time Temperature Dew Point Pressure Wind Wind Speed Wind Gust Humidity Rainfall Rate (Hourly) solar Conditions
-17.8 °C -17.8 °C 0 hPa Calm     Humidity% 0 mm SolarRadiationWatts/m^2 W/m2 Conditions
00:02 17.6 °C 8.5 °C 1011.4 hPa SSE 17.7 km/h 19.3 km/h 55% 0 mm 0.0 W/m2
00:07 17.5 °C 8.6 °C 1011.4 hPa SSE 16.3 km/h 22.5 km/h 56% 0 mm 0.0 W/m2
00:17 17.4 °C 8.3 °C 1011.4 hPa South 19.5 km/h 19.5 km/h 55% 0 mm 0.0 W/m2
00:22 17.4 °C 8.5 °C 1011.4 hPa SSE 14.3 km/h 17.7 km/h 56% 0 mm 0.0 W/m2
00:27 17.3 °C 8.4 °C 1011.4 hPa South 9.7 km/h 16.1 km/h 56% 0 mm 0.0 W/m2
00:32 17.2 °C 8.3 °C 1011.4 hPa South 11.1 km/h 12.9 km/h 56% 0 mm 0.0 W/m2
00:37 17.1 °C 8.5 °C 1011.4 hPa South 9.7 km/h 14.5 km/h 57% 0 mm 0.0 W/m2
00:42 17.1 °C 8.5 °C 1011.4 hPa South 9.7 km/h 16.1 km/h 57% 0 mm 0.0 W/m2
00:47 17.1 °C 8.5 °C 1011.1 hPa South 9.7 km/h 12.9 km/h 57% 0 mm 0.0 W/m2
00:52 17 °C 8.2 °C 1011.1 hPa South 9.7 km/h 16.1 km/h 56% 0 mm 0.0 W/m2
00:57 16.9 °C 8.3 °C 1011.1 hPa South 13 km/h 16.1 km/h 57% 0 mm 0.0 W/m2
01:08 16.8 °C 8.2 °C 1011.1 hPa SSW 14.3 km/h 14.5 km/h 57% 0 mm 0.0 W/m2
01:13 16.7 °C 8.4 °C 1011.1 hPa SSW 7.9 km/h 12.9 km/h 58% 0 mm 0.0 W/m2
01:18 16.6 °C 8.3 °C 1011.1 hPa SSW 11.1 km/h 16.1 km/h 58% 0 mm 0.0 W/m2
01:23 16.6 °C 8.3 °C 1010.7 hPa South 13 km/h 16.1 km/h 58% 0 mm 0.0 W/m2
01:28 16.4 °C 8.4 °C 1010.7 hPa SSW 14.3 km/h 16.1 km/h 59% 0 mm 0.0 W/m2
01:33 16.3 °C 8.5 °C 1010.7 hPa SSW 13 km/h 16.1 km/h 60% 0 mm 0.0 W/m2
01:38 16.2 °C 8.4 °C 1010.7 hPa SSW 9.7 km/h 14.5 km/h 60% 0 mm 0.0 W/m2
01:43 16.1 °C 8.3 °C 1010.7 hPa SSW 13 km/h 16.1 km/h 60% 0 mm 0.0 W/m2
01:48 16.1 °C 8.3 °C 1010.7 hPa SSW 14.3 km/h 14.5 km/h 60% 0 mm 0.0 W/m2
01:54 16 °C 8.2 °C 1010.7 hPa SSW 11.1 km/h 12.9 km/h 60% 0 mm 0.0 W/m2
01:59 15.9 °C 8.1 °C 1010.7 hPa SSW 9.7 km/h 11.3 km/h 60% 0 mm 0.0 W/m2
02:04 15.8 °C 8.3 °C 1010.7 hPa SSW 11.1 km/h 14.5 km/h 61% 0 mm 0.0 W/m2
02:09 15.7 °C 8.2 °C 1010.7 hPa SSW 14.3 km/h 16.1 km/h 61% 0 mm 0.0 W/m2
02:14 15.8 °C 8.3 °C 1010.7 hPa SSW 16.3 km/h 16.3 km/h 61% 0 mm 0.0 W/m2
02:19 15.8 °C 8.3 °C 1010.7 hPa SSW 9.7 km/h 14.5 km/h 61% 0 mm 0.0 W/m2
02:24 15.8 °C 8.3 °C 1010.7 hPa SSW 14.3 km/h 14.5 km/h 61% 0 mm 0.0 W/m2
02:34 15.7 °C 8.2 °C 1010.4 hPa SSW 9.7 km/h 14.5 km/h 61% 0 mm 0.0 W/m2
02:43 15.5 °C 8.2 °C 1010.4 hPa SSW 7.9 km/h 9.7 km/h 62% 0 mm 0.0 W/m2
02:48 15.4 °C 8.2 °C 1010.4 hPa SSW 7.9 km/h 9.7 km/h 62% 0 mm 0.0 W/m2
02:53 15.4 °C 8.2 °C 1010.7 hPa SSW 9.7 km/h 9.7 km/h 62% 0 mm 0.0 W/m2
02:58 15.3 °C 8.1 °C 1010.7 hPa SSW 7.9 km/h 12.9 km/h 62% 0 mm 0.0 W/m2
03:03 15.3 °C 8.3 °C 1010.4 hPa SSW 11.1 km/h 14.5 km/h 63% 0 mm 0.0 W/m2
03:13 15.4 °C 8.4 °C 1010.4 hPa SSW 13 km/h 16.1 km/h 63% 0 mm 0.0 W/m2
03:18 15.3 °C 8.3 °C 1010.4 hPa SSW 11.1 km/h 16.1 km/h 63% 0 mm 0.0 W/m2
03:23 15.2 °C 8.2 °C 1010.4 hPa SSW 9.7 km/h 11.3 km/h 63% 0 mm 0.0 W/m2
03:28 15.1 °C 8.3 °C 1010.4 hPa SSW 11.1 km/h 11.3 km/h 64% 0 mm 0.0 W/m2
03:39 14.9 °C 8.4 °C 1010.4 hPa SSW 4.7 km/h 6.4 km/h 65% 0 mm 0.0 W/m2
03:44 14.8 °C 8.5 °C 1010.4 hPa Calm   4.8 km/h 66% 0 mm 0.0 W/m2
03:50 14.7 °C 8.4 °C 1010.7 hPa Calm     66% 0 mm 0.0 W/m2
03:55 14.6 °C 8.3 °C 1010.7 hPa Calm     66% 0 mm 0.0 W/m2
04:05 14.3 °C 8.5 °C 1010.4 hPa SSW 7.9 km/h 9.7 km/h 68% 0 mm 0.0 W/m2
04:10 14.3 °C 8.7 °C 1010.4 hPa SSW 7.9 km/h 9.7 km/h 69% 0 mm 0.0 W/m2
04:15 14.4 °C 8.8 °C 1010.7 hPa SSW 9.7 km/h 9.7 km/h 69% 0 mm 0.0 W/m2
04:20 14.4 °C 8.6 °C 1010.4 hPa SSW 7.9 km/h 9.7 km/h 68% 0 mm 0.0 W/m2
04:25 14.4 °C 8.8 °C 1010.4 hPa SSW 7.9 km/h 11.3 km/h 69% 0 mm 0.0 W/m2
04:30 14.5 °C 8.7 °C 1010.4 hPa SSW 6.4 km/h 9.7 km/h 68% 0 mm 0.0 W/m2
04:35 14.4 °C 8.8 °C 1010.4 hPa SSW 9.7 km/h 9.7 km/h 69% 0 mm 0.0 W/m2
04:45 14.3 °C 8.7 °C 1010.4 hPa SSW 7.9 km/h 11.3 km/h 69% 0 mm 0.0 W/m2
04:50 14.2 °C 8.8 °C 1010.4 hPa SSW 7.9 km/h 11.3 km/h 70% 0 mm 0.0 W/m2
04:55 14.2 °C 8.8 °C 1010.4 hPa SSW 7.9 km/h 9.7 km/h 70% 0 mm 0.0 W/m2
05:05 14.1 °C 8.9 °C 1010.4 hPa SSW 6.4 km/h 8 km/h 71% 0 mm 0.0 W/m2
05:10 14.1 °C 8.9 °C 1010.4 hPa SSW 6.4 km/h 9.7 km/h 71% 0 mm 0.0 W/m2
05:15 14 °C 8.8 °C 1010.4 hPa SSW 7.9 km/h 11.3 km/h 71% 0 mm 0.0 W/m2
05:21 13.9 °C 8.7 °C 1010.4 hPa SSW 7.9 km/h 9.7 km/h 71% 0 mm 0.0 W/m2
05:27 13.8 °C 8.8 °C 1010.4 hPa SSW 11.1 km/h 11.3 km/h 72% 0 mm 0.0 W/m2
05:33 13.8 °C 8.8 °C 1010.4 hPa SSW 7.9 km/h 11.3 km/h 72% 0 mm 0.0 W/m2
05:38 13.8 °C 9 °C 1010.4 hPa SSW 9.7 km/h 12.9 km/h 73% 0 mm 0.0 W/m2
05:46 13.8 °C 8.8 °C 1010.4 hPa SSW 9.7 km/h 11.3 km/h 72% 0 mm 0.0 W/m2
05:51 13.7 °C 8.7 °C 1010.4 hPa Calm   6.4 km/h 72% 0 mm 0.0 W/m2
05:56 13.7 °C 8.7 °C 1010.4 hPa Calm     72% 0 mm 0.0 W/m2
06:02 13.6 °C 8.9 °C 1010.4 hPa Calm     73% 0 mm 0.0 W/m2
06:09 13.4 °C 8.7 °C 1010.4 hPa Calm     73% 0 mm 0.0 W/m2
06:15 13.3 °C 8.8 °C 1010.4 hPa SSW 6.4 km/h 8 km/h 74% 0 mm 0.0 W/m2
06:37 13 °C 8.5 °C 1010.7 hPa SSW 4.7 km/h 6.4 km/h 74% 0 mm 0.0 W/m2
06:52 12.6 °C 8.1 °C 1010.7 hPa SSW 6.4 km/h 6.4 km/h 74% 0 mm 5.0 W/m2
07:44 14.3 °C 9.3 °C 1011.4 hPa Calm     72% 0 mm 128.0 W/m2
07:59 15 °C 9.6 °C 1011.4 hPa SSW 6.4 km/h 6.4 km/h 70% 0 mm 197.0 W/m2
08:10 15.4 °C 9.5 °C 1011.4 hPa Calm     68% 0 mm 244.0 W/m2
09:11 17.8 °C 9.4 °C 1011.4 hPa Calm     58% 0 mm 466.0 W/m2
09:27 18.6 °C 9.1 °C 1011.4 hPa Calm     54% 0 mm 519.0 W/m2
09:43 19.4 °C 8.7 °C 1011.4 hPa Calm     50% 0 mm 566.0 W/m2
10:08 20.8 °C 8.1 °C 1011.1 hPa Calm     44% 0 mm 647.0 W/m2
10:23 21.7 °C 7.1 °C 1011.1 hPa Calm     39% 0 mm 693.0 W/m2
10:33 22.4 °C 6.6 °C 1011.1 hPa Calm     36% 0 mm 717.0 W/m2
10:49 23.5 °C 6.3 °C 1010.7 hPa Calm     33% 0 mm 754.0 W/m2
11:20 25.4 °C 4.5 °C 1010.4 hPa WSW 11.1 km/h 11.3 km/h 26% 0 mm 817.0 W/m2
11:36 25.8 °C 4.8 °C 1010.4 hPa WSW 9.7 km/h 11.3 km/h 26% 0 mm 840.0 W/m2
12:39 26.9 °C 4.6 °C 1009.7 hPa West 11.1 km/h 12.9 km/h 24% 0 mm 909.0 W/m2
13:37 28 °C 3.6 °C 1008.7 hPa WNW 13 km/h 16.1 km/h 21% 0 mm 907.0 W/m2
13:51 28.6 °C 3.4 °C 1008.4 hPa Calm   12.9 km/h 20% 0 mm 893.0 W/m2
14:05 28.8 °C 1.3 °C 1008.4 hPa Calm   3.2 km/h 17% 0 mm 879.0 W/m2
14:12 29.3 °C 2.5 °C 1008.4 hPa Calm     18% 0 mm 865.0 W/m2
14:22 29.4 °C 2.6 °C 1007.7 hPa NW 13 km/h 19.3 km/h 18% 0 mm 851.0 W/m2
14:27 29.6 °C 2 °C 1007.7 hPa NW 14.3 km/h 17.7 km/h 17% 0 mm 842.0 W/m2
14:32 29.4 °C 2.6 °C 1007.7 hPa NW 14.3 km/h 20.9 km/h 18% 0 mm 831.0 W/m2
14:57 30.2 °C 2.4 °C 1007.3 hPa NW 11.1 km/h 19.3 km/h 17% 0 mm 795.0 W/m2
15:12 30.4 °C 2.6 °C 1007 hPa Calm     17% 0 mm 763.0 W/m2
16:03 31 °C 1.3 °C 1006.3 hPa NW 9.7 km/h 17.7 km/h 15% 0 mm 638.0 W/m2
16:17 31.3 °C 0.6 °C 1006 hPa NW 11.1 km/h 24.1 km/h 14% 0 mm 589.0 W/m2
16:29 31.2 °C 0.5 °C 1006 hPa Calm     14% 0 mm 554.0 W/m2
16:44 31.6 °C -1.3 °C 1005.6 hPa NW 7.9 km/h 11.3 km/h 12% 0 mm 506.0 W/m2
17:00 31.6 °C -1.3 °C 1005.6 hPa NW 1.4 km/h 1.6 km/h 12% 0 mm 455.0 W/m2
17:15 31.6 °C -3.7 °C 1005.6 hPa NW 7.9 km/h 12.9 km/h 10% 0 mm 408.0 W/m2
17:29 31.8 °C -3.6 °C 1005.3 hPa NW 11.1 km/h 17.7 km/h 10% 0 mm 355.0 W/m2
17:45 32 °C -3.4 °C 1005.3 hPa NW 7.9 km/h 11.3 km/h 10% 0 mm 299.0 W/m2
18:42 32 °C -6.4 °C 1005 hPa Calm     8% 0 mm 79.0 W/m2
18:56 31.1 °C -5.5 °C 1005 hPa Calm     9% 0 mm 18.0 W/m2
19:06 30.7 °C -4.4 °C 1005 hPa Calm     10% 0 mm 9.0 W/m2
19:23 29.9 °C -5 °C 1005 hPa Calm     10% 0 mm 0.0 W/m2
19:38 29.4 °C -3 °C 1005 hPa West 9.7 km/h 19.3 km/h 12% 0 mm 0.0 W/m2
19:52 28.6 °C -1.5 °C 1005.6 hPa South 20.9 km/h 27.4 km/h 14% 0 mm 0.0 W/m2
20:07 28 °C -0.2 °C 1005.6 hPa South 11.1 km/h 20.9 km/h 16% 0 mm 0.0 W/m2
20:22 27.4 °C 2.5 °C 1005.6 hPa South 22.7 km/h 29 km/h 20% 0 mm 0.0 W/m2
20:52 26.8 °C 2 °C 1006.3 hPa South 14.3 km/h 20.9 km/h 20% 0 mm 0.0 W/m2
21:39 25.6 °C 4.7 °C 1007 hPa SSW 17.7 km/h 25.7 km/h 26% 0 mm 0.0 W/m2
21:51 25.1 °C 4.2 °C 1007 hPa SSW 13 km/h 22.5 km/h 26% 0 mm 0.0 W/m2
22:01 24.9 °C 4.1 °C 1007 hPa SSW 17.7 km/h 22.5 km/h 26% 0 mm 0.0 W/m2
22:09 24.6 °C 3.8 °C 1007 hPa SSW 17.7 km/h 19.3 km/h 26% 0 mm 0.0 W/m2
22:18 24.4 °C 3.7 °C 1007.3 hPa SSW 19.5 km/h 19.5 km/h 26% 0 mm 0.0 W/m2
22:23 24.3 °C 3.6 °C 1007.3 hPa SSW 14.3 km/h 20.9 km/h 26% 0 mm 0.0 W/m2
22:28 24.3 °C 3.6 °C 1007.3 hPa SSW 13 km/h 16.1 km/h 26% 0 mm 0.0 W/m2
22:33 24.2 °C 3.5 °C 1007.3 hPa SSW 16.3 km/h 22.5 km/h 26% 0 mm 0.0 W/m2
22:38 24.1 °C 3.4 °C 1007.3 hPa SSW 19.5 km/h 20.9 km/h 26% 0 mm 0.0 W/m2
22:48 23.7 °C 3.1 °C 1007.3 hPa SSW 11.1 km/h 17.7 km/h 26% 0 mm 0.0 W/m2
22:53 23.6 °C 3 °C 1007.3 hPa SSW 16.3 km/h 16.3 km/h 26% 0 mm 0.0 W/m2
22:58 23.4 °C 2.8 °C 1007.3 hPa SSW 13 km/h 16.1 km/h 26% 0 mm 0.0 W/m2
23:03 23.2 °C 2.6 °C 1007.3 hPa SSW 13 km/h 13 km/h 26% 0 mm 0.0 W/m2
23:13 23.1 °C 2.5 °C 1007.3 hPa SSW 11.1 km/h 16.1 km/h 26% 0 mm 0.0 W/m2
23:18 22.9 °C 2.4 °C 1007.3 hPa SSW 9.7 km/h 14.5 km/h 26% 0 mm 0.0 W/m2
23:23 22.8 °C 2.3 °C 1007.3 hPa SSW 6.4 km/h 12.9 km/h 26% 0 mm 0.0 W/m2
23:33 22.7 °C 2.7 °C 1007.3 hPa SSW 11.1 km/h 14.5 km/h 27% 0 mm 0.0 W/m2
23:38 22.7 °C 2.7 °C 1007.3 hPa SSW 7.9 km/h 14.5 km/h 27% 0 mm 0.0 W/m2
23:44 22.5 °C 3.1 °C 1007.3 hPa SSW 13 km/h 14.5 km/h 28% 0 mm 0.0 W/m2
23:49 22.4 °C 3 °C 1007.3 hPa SSW 14.3 km/h 14.5 km/h 28% 0 mm 0.0 W/m2
23:58 22.3 °C 2.9 °C 1007.7 hPa SSW 9.7 km/h 14.5 km/h 28% 0 mm 0.0 W/m2
Canyon Roadhouse, Fishriver Canyon, Namibia
Compliments of Weather Underground - 2.25 mb